Time;durP1;ratioP1;P1;durP2;ratioP2;P2;SDS_P1;SDS_P2;PMS_P1;PMS_P2;Temp;Humidity;BMP_temperature;BMP_pressure;BME280_temperature;BME280_humidity;BME280_pressure;Samples;Min_cycle;Max_cycle;Signal;HPM_P1;HPM_P2
2023/05/29 00:01:58;;;;;;;0.00;0.00;;;;;;;-145.06;100.00;92549.06;10390259;28;20026;-76
2023/05/29 00:06:58;;;;;;;0.00;0.00;;;;;;;-145.06;100.00;92538.84;10385176;28;20467;-75
2023/05/29 00:11:58;;;;;;;0.00;0.00;;;;;;;-145.06;100.00;92540.91;10383430;28;20455;-76
2023/05/29 00:16:59;;;;;;;0.03;0.03;;;;;;;-145.06;100.00;92540.91;10378502;28;20021;-76
2023/05/29 00:21:59;;;;;;;0.00;0.00;;;;;;;-145.06;100.00;92540.91;10382393;28;20533;-76
2023/05/29 00:27:01;;;;;;;0.08;0.08;;;;;;;-145.06;100.00;92534.75;10378522;28;20581;-76
2023/05/29 00:32:01;;;;;;;0.00;0.00;;;;;;;-145.06;100.00;92549.06;10392915;28;20014;-76
2023/05/29 00:37:02;;;;;;;0.00;0.00;;;;;;;-145.06;100.00;92540.91;10390702;28;20060;-76
2023/05/29 00:42:03;;;;;;;0.00;0.00;;;;;;;-145.06;100.00;92553.16;10389195;28;20032;-76
2023/05/29 00:47:03;;;;;;;0.10;0.10;;;;;;;-145.06;100.00;92508.19;10385015;28;20371;-75
2023/05/29 00:57:06;;;;;;;0.00;0.00;;;;;;;-145.06;100.00;92534.75;10411224;28;20095;-76
2023/05/29 01:02:07;;;;;;;0.00;0.00;;;;;;;-145.06;100.00;92534.75;10413806;28;20079;-76
2023/05/29 01:07:09;;;;;;;0.00;0.00;;;;;;;-145.06;100.00;92532.72;10413413;28;20033;-75
2023/05/29 01:12:43;;;;;;;0.00;0.00;;;;;;;-145.06;100.00;92549.06;10413532;28;20018;-76
2023/05/29 01:18:22;;;;;;;0.00;0.00;;;;;;;-145.06;100.00;92581.78;10412833;28;20025;-76
2023/05/29 01:23:34;;;;;;;0.00;0.00;;;;;;;-145.06;100.00;92559.31;10411887;28;20030;-76
2023/05/29 01:34:01;;;;;;;0.00;0.00;;;;;;;-145.06;100.00;92581.78;10413224;28;20037;-76
2023/05/29 01:39:02;;;;;;;0.00;0.00;;;;;;;-145.06;100.00;92622.69;10410838;28;20018;-76
2023/05/29 01:44:08;;;;;;;0.00;0.00;;;;;;;-145.06;100.00;92589.97;10412217;28;20252;-76
2023/05/29 01:49:10;;;;;;;0.10;0.10;;;;;;;-145.06;100.00;92573.63;10411788;28;20017;-76
2023/05/29 01:54:11;;;;;;;0.00;0.00;;;;;;;-145.06;100.00;92624.72;10411635;28;20025;-76
2023/05/29 01:59:12;;;;;;;0.00;0.00;;;;;;;-145.06;100.00;92606.34;10409885;28;20025;-76
2023/05/29 02:04:13;;;;;;;0.00;0.00;;;;;;;-145.06;100.00;92651.31;10412120;28;20089;-76
2023/05/29 02:09:13;;;;;;;0.00;0.00;;;;;;;-145.06;100.00;92606.34;10411042;28;20030;-76
2023/05/29 02:14:13;;;;;;;0.00;0.00;;;;;;;-145.06;100.00;92602.25;10411336;28;20033;-75
2023/05/29 02:19:14;;;;;;;0.00;0.00;;;;;;;-145.06;100.00;92606.34;10410828;28;20316;-74
2023/05/29 02:24:14;;;;;;;0.00;0.00;;;;;;;-145.06;100.00;92606.34;10410910;28;20264;-75
2023/05/29 02:29:14;;;;;;;0.00;0.00;;;;;;;-145.06;100.00;92641.09;10410041;28;20478;-75
2023/05/29 02:34:15;;;;;;;0.00;0.00;;;;;;;-145.06;100.00;92649.28;10409410;28;20402;-75
2023/05/29 02:39:15;;;;;;;0.00;0.00;;;;;;;-145.06;100.00;92581.78;10410324;28;20021;-76
2023/05/29 02:44:15;;;;;;;0.00;0.00;;;;;;;-145.06;100.00;92594.06;10410407;28;20035;-76
2023/05/29 02:49:16;;;;;;;0.00;0.00;;;;;;;-145.06;100.00;92598.16;10410071;28;20064;-76
2023/05/29 02:54:16;;;;;;;0.00;0.00;;;;;;;-145.06;100.00;92561.34;10409981;28;20656;-76
2023/05/29 02:59:16;;;;;;;0.00;0.00;;;;;;;-145.06;100.00;92569.53;10408532;28;20022;-76
2023/05/29 03:04:17;;;;;;;0.00;0.00;;;;;;;-145.06;100.00;92561.34;10410082;28;20610;-76
2023/05/29 03:09:17;;;;;;;0.00;0.00;;;;;;;-145.06;100.00;92559.31;10409695;28;20347;-76
2023/05/29 03:14:18;;;;;;;0.00;0.00;;;;;;;-145.06;100.00;92299.63;10409703;28;20036;-76
2023/05/29 03:19:19;;;;;;;0.00;0.00;;;;;;;-145.06;100.00;92033.81;10408236;28;20088;-76
2023/05/29 03:24:20;;;;;;;0.00;0.00;;;;;;;-145.06;100.00;91939.75;10409594;28;20026;-76
2023/05/29 03:29:20;;;;;;;0.00;0.00;;;;;;;-145.06;100.00;91866.16;10409997;28;20044;-76
2023/05/29 03:34:21;;;;;;;0.00;0.00;;;;;;;-145.06;100.00;91855.94;10409502;28;20057;-77
2023/05/29 03:39:21;;;;;;;0.00;0.00;;;;;;;-145.06;100.00;91857.97;10411832;28;20034;-76
2023/05/29 03:44:21;;;;;;;0.00;0.00;;;;;;;-145.06;100.00;91702.59;10418225;28;20017;-76
2023/05/29 03:49:22;;;;;;;0.00;0.00;;;;;;;-145.06;98.32;91626.97;10417424;28;20429;-77
2023/05/29 03:54:22;;;;;;;0.00;0.00;;;;;;;-145.06;94.15;91455.25;10416435;28;20267;-77
2023/05/29 03:59:22;;;;;;;0.00;0.00;;;;;;;-145.06;87.44;91256.94;10416356;28;20042;-77
2023/05/29 04:04:23;;;;;;;0.10;0.10;;;;;;;-145.06;79.01;91177.22;10416930;28;20270;-77
2023/05/29 04:09:23;;;;;;;0.10;0.10;;;;;;;-145.06;76.49;91169.06;10414889;28;20025;-75
2023/05/29 04:14:23;;;;;;;0.00;0.00;;;;;;;-145.06;72.93;91030.06;10414783;28;20264;-76
2023/05/29 04:19:23;;;;;;;0.08;0.08;;;;;;;-145.06;71.54;91019.84;10414352;28;20498;-76
2023/05/29 04:24:24;;;;;;;0.10;0.10;;;;;;;-145.06;68.55;90748.00;10414132;28;20394;-76
2023/05/29 04:29:24;;;;;;;0.10;0.10;;;;;;;-145.06;60.81;90745.94;10415355;28;20018;-77
2023/05/29 04:34:24;;;;;;;0.10;0.10;;;;;;;-145.06;62.43;90929.91;10415282;28;20025;-77
2023/05/29 04:39:25;;;;;;;0.10;0.10;;;;;;;-145.06;62.91;90831.78;10413690;28;20025;-76
2023/05/29 04:44:31;;;;;;;0.10;0.10;;;;;;;-145.06;61.35;90889.03;10415150;28;20053;-77
2023/05/29 04:49:31;;;;;;;0.00;0.00;;;;;;;-145.06;61.11;90919.69;10414719;28;20033;-76
2023/05/29 04:54:33;;;;;;;0.10;0.10;;;;;;;-145.06;59.15;90700.97;10415150;28;20405;-77
2023/05/29 04:59:34;;;;;;;0.10;0.10;;;;;;;-145.06;58.54;90586.53;10413679;28;20498;-77
2023/05/29 05:04:35;;;;;;;0.10;0.10;;;;;;;-145.06;55.12;90508.84;10416394;28;20021;-77
2023/05/29 05:09:35;;;;;;;0.10;0.10;;;;;;;-145.06;52.54;90423.00;10416123;28;20017;-77
2023/05/29 05:14:35;;;;;;;0.10;0.10;;;;;;;-145.06;50.49;90312.66;10414580;28;20017;-77
2023/05/29 05:19:36;;;;;;;0.00;0.00;;;;;;;-145.06;46.90;90122.59;10414548;28;20275;-77
2023/05/29 05:24:36;;;;;;;0.10;0.10;;;;;;;-145.06;46.22;90153.25;10417376;28;20041;-77
2023/05/29 05:29:36;;;;;;;0.10;0.10;;;;;;;-145.06;45.67;90128.72;10418362;28;20283;-77
2023/05/29 05:34:37;;;;;;;0.10;0.10;;;;;;;-145.06;43.44;90040.84;10420231;28;20543;-78
2023/05/29 05:39:37;;;;;;;0.00;0.00;;;;;;;-145.06;44.93;90014.28;10420772;28;20444;-77
2023/05/29 05:44:37;;;;;;;0.10;0.10;;;;;;;-145.06;45.04;90077.63;10419422;28;20549;-78
2023/05/29 05:49:37;;;;;;;0.00;0.00;;;;;;;-145.06;45.30;90096.03;10413404;28;20033;-75
2023/05/29 05:54:38;;;;;;;0.00;0.00;;;;;;;-145.06;44.49;90026.56;10411952;28;20033;-75
2023/05/29 05:59:39;;;;;;;0.00;0.00;;;;;;;-145.06;44.26;89971.38;10411767;28;20028;-75
2023/05/29 06:04:40;;;;;;;0.00;0.00;;;;;;;-145.06;44.93;90149.16;10411699;28;20102;-74
2023/05/29 06:09:41;;;;;;;0.00;0.00;;;;;;;-145.06;44.41;89924.38;10411466;28;20026;-75
2023/05/29 06:14:42;;;;;;;0.10;0.10;;;;;;;-145.06;44.09;89952.97;10410227;28;20044;-75
2023/05/29 06:19:42;;;;;;;0.00;0.00;;;;;;;-145.06;42.55;89928.47;10411181;28;20025;-74
2023/05/29 06:24:42;;;;;;;0.00;0.00;;;;;;;-145.06;42.06;89840.59;10411195;28;20517;-75
2023/05/29 06:29:43;;;;;;;0.00;0.00;;;;;;;-145.06;42.65;90230.91;10411016;28;20029;-75
2023/05/29 06:34:43;;;;;;;0.00;0.00;;;;;;;-145.06;42.17;89875.34;10413390;28;20068;-75
2023/05/29 06:39:45;;;;;;;0.00;0.00;;;;;;;-145.06;42.83;90149.16;10410596;28;20049;-75
2023/05/29 06:44:45;;;;;;;0.00;0.00;;;;;;;-145.06;42.79;90059.25;10410542;28;20026;-75
2023/05/29 06:49:46;;;;;;;0.00;0.00;;;;;;;-145.06;42.44;89889.63;10409592;28;20056;-75
2023/05/29 06:54:47;;;;;;;0.10;0.10;;;;;;;-145.06;41.92;89807.91;10440150;23;20392;-77
2023/05/29 06:59:47;;;;;;;0.10;0.10;;;;;;;-145.06;41.63;89781.34;10447027;28;20071;-77
2023/05/29 07:04:47;;;;;;;0.00;0.00;;;;;;;-145.06;42.49;89999.97;10448311;28;20474;-76
2023/05/29 07:09:48;;;;;;;0.00;0.00;;;;;;;-145.06;42.54;89834.47;10440131;28;20013;-76
2023/05/29 07:14:48;;;;;;;0.00;0.00;;;;;;;-145.06;43.64;89807.91;10449416;28;20543;-77
2023/05/29 07:19:49;;;;;;;0.00;0.00;;;;;;;-145.06;42.97;89895.75;10456098;28;20032;-75
2023/05/29 07:24:49;;;;;;;0.00;0.00;;;;;;;-145.06;43.96;90271.78;10452672;28;20021;-76
2023/05/29 07:29:50;;;;;;;0.00;0.00;;;;;;;-145.06;42.93;90016.34;10445268;28;20389;-76
2023/05/29 07:34:50;;;;;;;0.00;0.00;;;;;;;-145.06;45.22;89959.13;10453221;28;20025;-76
2023/05/29 07:39:51;;;;;;;0.00;0.00;;;;;;;-145.06;44.28;89995.91;10454858;28;20025;-76
2023/05/29 07:44:52;;;;;;;0.00;0.00;;;;;;;-145.06;45.48;90014.28;10454300;28;20029;-76
2023/05/29 07:49:53;;;;;;;0.00;0.00;;;;;;;-145.06;45.21;89877.38;10455628;28;20453;-76
2023/05/29 07:54:53;;;;;;;0.00;0.00;;;;;;;-145.06;42.47;89699.59;10457991;28;20116;-77
2023/05/29 07:59:53;;;;;;;0.00;0.00;;;;;;;-145.06;41.21;89748.63;10457842;28;20060;-76
2023/05/29 08:04:54;;;;;;;0.00;0.00;;;;;;;-145.06;41.72;89711.84;10457629;28;20025;-76
2023/05/29 08:09:54;;;;;;;0.00;0.00;;;;;;;-145.06;40.84;89634.22;10457669;28;20017;-76
2023/05/29 08:14:54;;;;;;;0.00;0.00;;;;;;;-145.06;38.91;89566.78;10456751;28;20064;-77
2023/05/29 08:19:55;;;;;;;0.00;0.00;;;;;;;-145.06;40.30;89869.19;10458147;28;20283;-76
2023/05/29 08:24:55;;;;;;;0.10;0.10;;;;;;;-145.06;40.70;89734.34;10455612;28;20053;-76
2023/05/29 08:29:55;;;;;;;0.00;0.00;;;;;;;-145.06;40.89;89744.56;10455375;28;20021;-74
2023/05/29 08:34:56;;;;;;;0.00;0.00;;;;;;;-145.06;41.28;89713.91;10456574;28;20029;-76
2023/05/29 08:39:57;;;;;;;0.00;0.00;;;;;;;-145.06;40.93;89781.34;10454937;28;20055;-73
2023/05/29 08:45:01;;;;;;;0.00;0.00;;;;;;;-145.06;40.52;89752.72;10456209;28;20016;-76
2023/05/29 08:50:02;;;;;;;0.00;0.00;;;;;;;-145.06;39.67;89660.78;10454802;28;20049;-76
2023/05/29 08:55:04;;;;;;;0.00;0.00;;;;;;;-145.06;38.61;89779.28;10454593;28;20040;-75
2023/05/29 09:00:12;;;;;;;0.00;0.00;;;;;;;-145.06;40.29;89858.97;10455613;28;20102;-77
2023/05/29 09:05:12;;;;;;;0.00;0.00;;;;;;;-145.06;39.69;89811.97;10455445;28;20346;-76
2023/05/29 09:10:13;;;;;;;0.10;0.10;;;;;;;-145.06;41.47;89797.69;10455138;28;20078;-76
2023/05/29 09:15:22;;;;;;;0.00;0.00;;;;;;;-145.06;40.42;90030.63;10454707;28;20025;-76
2023/05/29 09:20:25;;;;;;;0.10;0.10;;;;;;;-145.06;43.46;89997.94;10454549;28;20482;-76
2023/05/29 09:25:27;;;;;;;0.00;0.00;;;;;;;-145.06;41.89;90065.38;10454505;28;20029;-75
2023/05/29 09:30:47;;;;;;;0.00;0.00;;;;;;;-145.06;43.63;90153.25;10454028;28;20021;-75
2023/05/29 09:35:49;;;;;;;0.00;0.00;;;;;;;-145.06;44.36;90024.50;10453707;28;20504;-75
2023/05/29 09:40:49;;;;;;;0.00;0.00;;;;;;;-145.06;43.52;89895.75;10453697;28;20025;-75
2023/05/29 09:45:50;;;;;;;0.00;0.00;;;;;;;-145.06;42.60;89887.59;10453321;28;20028;-76
2023/05/29 09:50:50;;;;;;;0.03;0.03;;;;;;;-145.06;42.16;89856.94;10452001;28;20017;-76
2023/05/29 09:55:52;;;;;;;0.00;0.00;;;;;;;-145.06;41.67;90006.13;10453104;28;20107;-76
2023/05/29 10:00:53;;;;;;;0.10;0.10;;;;;;;-145.06;43.52;89955.03;10451812;28;20074;-75
2023/05/29 10:05:57;;;;;;;0.00;0.00;;;;;;;-145.06;42.13;89934.59;10452517;28;20213;-75
2023/05/29 10:11:01;;;;;;;0.10;0.10;;;;;;;-145.06;42.23;89942.75;10477446;28;20021;-75
2023/05/29 10:16:04;;;;;;;0.00;0.00;;;;;;;-145.06;42.15;89926.41;10475519;28;20074;-75
2023/05/29 10:21:07;;;;;;;0.00;0.00;;;;;;;-145.06;41.59;90002.03;10452142;28;20059;-75
2023/05/29 10:26:21;;;;;;;0.10;0.10;;;;;;;-145.06;42.56;89957.06;10455091;28;20064;-75
2023/05/29 10:31:47;;;;;;;0.00;0.00;;;;;;;-145.06;42.76;89952.97;10454582;28;20017;-75
2023/05/29 10:36:56;;;;;;;0.00;0.00;;;;;;;-145.06;42.26;90051.06;10451668;28;20041;-74
2023/05/29 10:41:58;;;;;;;0.00;0.00;;;;;;;-145.06;41.21;90059.25;10451505;28;20485;-73
2023/05/29 10:46:58;;;;;;;0.10;0.10;;;;;;;-145.06;43.52;90188.00;10450891;28;20091;-72
2023/05/29 10:52:01;;;;;;;0.00;0.00;;;;;;;-145.06;42.40;90089.91;10451459;28;20551;-74
2023/05/29 10:57:03;;;;;;;0.03;0.03;;;;;;;-145.06;41.33;90096.03;10451116;28;20029;-74
2023/05/29 11:02:05;;;;;;;0.00;0.00;;;;;;;-145.06;40.97;90118.50;10451090;28;20033;-71
2023/05/29 11:07:08;;;;;;;0.10;0.10;;;;;;;-145.06;42.34;90147.13;10451219;28;20063;-73
2023/05/29 11:12:32;;;;;;;0.10;0.10;;;;;;;-145.06;43.34;90210.47;10450962;28;20028;-73
2023/05/29 11:17:44;;;;;;;0.05;0.05;;;;;;;-145.06;41.48;90232.94;10450874;28;20040;-73
2023/05/29 11:23:03;;;;;;;0.00;0.00;;;;;;;-145.06;41.21;90192.06;10449368;28;20397;-73
2023/05/29 11:28:08;;;;;;;0.00;0.00;;;;;;;-145.06;41.67;90196.16;10450511;28;20056;-73
2023/05/29 11:33:19;;;;;;;0.00;0.00;;;;;;;-145.06;40.32;90153.25;10450440;28;20382;-70
2023/05/29 11:38:19;;;;;;;0.00;0.00;;;;;;;-145.06;41.08;90206.38;10450283;28;20075;-73
2023/05/29 11:43:20;;;;;;;0.00;0.00;;;;;;;-145.06;42.25;90194.13;10450163;28;20061;-73
2023/05/29 11:48:21;;;;;;;0.10;0.10;;;;;;;-145.06;39.71;90136.91;10450290;28;20021;-73
2023/05/29 11:53:21;;;;;;;0.10;0.10;;;;;;;-145.06;39.63;90141.00;10450092;28;20025;-72
2023/05/29 11:58:22;;;;;;;0.00;0.00;;;;;;;-145.06;41.81;90243.16;10450267;28;20397;-72
2023/05/29 12:03:22;;;;;;;0.00;0.00;;;;;;;-145.06;41.52;90263.59;10457987;28;20025;-72
2023/05/29 12:08:24;;;;;;;0.00;0.00;;;;;;;-145.06;42.91;90265.66;10457407;28;20429;-72
2023/05/29 12:13:24;;;;;;;0.00;0.00;;;;;;;-145.06;41.87;90218.66;10458016;28;20370;-72
2023/05/29 12:18:25;;;;;;;0.00;0.00;;;;;;;-145.06;42.29;90216.59;10457117;28;20025;-72
2023/05/29 12:23:27;;;;;;;0.00;0.00;;;;;;;-145.06;40.68;90136.91;10456189;28;20111;-72
2023/05/29 12:28:28;;;;;;;0.00;0.00;;;;;;;-145.06;39.56;90183.91;10456597;28;20025;-72
2023/05/29 12:33:30;;;;;;;0.00;0.00;;;;;;;-145.06;41.55;90241.13;10456650;28;20036;-73
2023/05/29 12:38:31;;;;;;;0.00;0.00;;;;;;;-145.06;41.37;90239.09;10457964;28;20028;-72
2023/05/29 12:43:31;;;;;;;0.00;0.00;;;;;;;-145.06;40.08;90188.00;10457522;28;20031;-72
2023/05/29 12:48:31;;;;;;;0.00;0.00;;;;;;;-145.06;38.63;90175.72;10456110;28;20398;-72
2023/05/29 12:53:32;;;;;;;0.00;0.00;;;;;;;-145.06;40.75;90308.56;10456298;28;20453;-72
2023/05/29 12:58:32;;;;;;;0.00;0.00;;;;;;;-145.06;41.87;90279.97;10454335;28;20025;-72
2023/05/29 13:03:33;;;;;;;0.00;0.00;;;;;;;-145.06;40.71;90218.66;10455658;28;20090;-72
2023/05/29 13:08:34;;;;;;;0.10;0.10;;;;;;;-145.06;39.00;90220.69;10455371;28;20444;-72
2023/05/29 13:13:34;;;;;;;0.10;0.10;;;;;;;-145.06;40.04;90267.69;10454369;28;20493;-72
2023/05/29 13:18:34;;;;;;;0.05;0.05;;;;;;;-145.06;40.80;90263.59;10453434;28;20101;-72
2023/05/29 13:23:34;;;;;;;0.00;0.00;;;;;;;-145.06;39.67;90282.00;10455105;28;20397;-72
2023/05/29 13:28:35;;;;;;;0.10;0.10;;;;;;;-145.06;38.77;90237.03;10454504;28;20021;-72
2023/05/29 13:33:35;;;;;;;0.10;0.10;;;;;;;-145.06;39.84;90284.03;10454716;28;20102;-72
2023/05/29 13:38:35;;;;;;;0.10;0.10;;;;;;;-145.06;38.31;90269.75;10454014;28;20047;-72
2023/05/29 13:43:36;;;;;;;0.00;0.00;;;;;;;-145.06;37.06;90237.03;10454162;28;20021;-72
2023/05/29 13:48:36;;;;;;;0.10;0.10;;;;;;;-145.06;38.08;90269.75;10453684;28;20017;-72
2023/05/29 13:53:36;;;;;;;0.00;0.00;;;;;;;-145.06;38.34;90232.94;10453936;28;20029;-72
2023/05/29 13:58:37;;;;;;;0.10;0.10;;;;;;;-145.06;37.96;90235.00;10453690;28;20103;-73
2023/05/29 14:03:38;;;;;;;0.10;0.10;;;;;;;-145.06;37.87;90259.53;10454875;28;20049;-72
2023/05/29 14:08:38;;;;;;;0.00;0.00;;;;;;;-145.06;38.70;90271.78;10454264;28;20477;-72
2023/05/29 14:13:39;;;;;;;0.10;0.10;;;;;;;-145.06;37.78;90273.81;10453905;28;20028;-72
2023/05/29 14:18:39;;;;;;;0.03;0.03;;;;;;;-145.06;36.86;90263.59;10453015;28;20029;-72
2023/05/29 14:23:39;;;;;;;0.00;0.00;;;;;;;-145.06;37.92;90292.22;10452359;28;20055;-72
2023/05/29 14:28:40;;;;;;;0.10;0.10;;;;;;;-145.06;37.14;90269.75;10453170;28;20500;-72
2023/05/29 14:33:41;;;;;;;0.10;0.10;;;;;;;-145.06;36.92;90251.34;10452662;28;20391;-72
2023/05/29 14:38:42;;;;;;;0.00;0.00;;;;;;;-145.06;35.68;90253.38;10453465;28;20031;-72
2023/05/29 14:43:43;;;;;;;0.10;0.10;;;;;;;-145.06;37.79;90294.25;10451975;28;20025;-72
2023/05/29 14:48:44;;;;;;;0.00;0.00;;;;;;;-145.06;35.19;90153.25;10451882;28;20021;-72
2023/05/29 14:53:44;;;;;;;0.00;0.00;;;;;;;-145.06;36.71;90216.59;10451540;28;20412;-72
2023/05/29 14:58:45;;;;;;;0.00;0.00;;;;;;;-145.06;36.89;90228.88;10451377;28;20021;-71
2023/05/29 15:03:46;;;;;;;0.00;0.00;;;;;;;-145.06;37.01;90214.56;10451285;28;20296;-73
2023/05/29 15:08:48;;;;;;;0.10;0.10;;;;;;;-145.06;35.40;90179.81;10450966;28;20104;-73
2023/05/29 15:13:48;;;;;;;0.00;0.00;;;;;;;-145.06;36.56;90173.69;10450340;28;20060;-73
2023/05/29 15:18:48;;;;;;;0.00;0.00;;;;;;;-145.06;37.76;90206.38;10451520;28;20035;-73
2023/05/29 15:23:48;;;;;;;0.00;0.00;;;;;;;-145.06;39.89;90324.91;10451820;28;20470;-73
2023/05/29 15:28:49;;;;;;;0.10;0.10;;;;;;;-145.06;40.37;90339.22;10451451;28;20025;-73
2023/05/29 15:33:49;;;;;;;0.10;0.10;;;;;;;-145.06;39.78;90322.88;10452565;28;20037;-73
2023/05/29 15:38:50;;;;;;;0.00;0.00;;;;;;;-145.06;39.35;90333.09;10458019;28;20503;-73
2023/05/29 15:43:50;;;;;;;0.10;0.10;;;;;;;-145.06;40.62;90386.22;10456998;28;20024;-73
2023/05/29 15:48:50;;;;;;;0.00;0.00;;;;;;;-145.06;42.00;90451.63;10459248;28;20432;-73
2023/05/29 15:53:51;;;;;;;0.10;0.10;;;;;;;-145.06;42.11;90439.38;10458987;28;20119;-73
2023/05/29 15:58:51;;;;;;;0.00;0.00;;;;;;;-145.06;41.81;90445.50;10458031;28;20394;-71
2023/05/29 16:03:51;;;;;;;0.00;0.00;;;;;;;-145.06;43.04;90476.16;10457843;28;20131;-72
2023/05/29 16:08:51;;;;;;;0.00;0.00;;;;;;;-145.06;42.07;90521.13;10457477;28;20108;-70
2023/05/29 16:13:52;;;;;;;0.00;0.00;;;;;;;-145.06;41.95;90529.28;10456320;28;20021;-71
2023/05/29 16:18:52;;;;;;;0.00;0.00;;;;;;;-145.06;41.50;90535.44;10457185;28;20035;-72
2023/05/29 16:23:57;;;;;;;0.10;0.10;;;;;;;-145.06;41.58;90625.34;10457046;28;20032;-71
2023/05/29 16:29:00;;;;;;;0.10;0.10;;;;;;;-145.06;42.01;90621.25;10456991;28;20032;-72
2023/05/29 16:34:00;;;;;;;0.10;0.10;;;;;;;-145.06;42.58;90653.97;10456909;28;20032;-73
2023/05/29 16:39:01;;;;;;;0.10;0.10;;;;;;;-145.06;42.45;90688.72;10456219;28;20760;-73
2023/05/29 16:44:01;;;;;;;0.08;0.08;;;;;;;-145.06;41.75;90703.03;10456327;28;20032;-73
2023/05/29 16:49:01;;;;;;;0.00;0.00;;;;;;;-145.06;41.91;90752.06;10453548;28;20039;-73
2023/05/29 16:54:01;;;;;;;0.10;0.10;;;;;;;-145.06;42.86;90748.00;10455677;28;20028;-73
2023/05/29 16:59:02;;;;;;;0.00;0.00;;;;;;;-145.06;41.81;90713.25;10456075;28;20127;-73
2023/05/29 17:04:02;;;;;;;0.03;0.03;;;;;;;-145.06;41.18;90692.81;10455579;28;20028;-73
2023/05/29 17:09:04;;;;;;;0.10;0.10;;;;;;;-145.06;41.94;90766.38;10453770;28;20389;-72
2023/05/29 17:14:04;;;;;;;0.10;0.10;;;;;;;-145.06;42.87;90776.59;10454943;28;20029;-73
2023/05/29 17:19:05;;;;;;;0.00;0.00;;;;;;;-145.06;42.24;90758.22;10454548;28;20021;-73
2023/05/29 17:24:06;;;;;;;0.00;0.00;;;;;;;-145.06;41.95;90809.31;10454541;28;20482;-70
2023/05/29 17:29:06;;;;;;;0.10;0.10;;;;;;;-145.06;41.39;90807.25;10454271;28;20031;-73
2023/05/29 17:34:06;;;;;;;0.10;0.10;;;;;;;-145.06;43.36;90878.81;10454200;28;20103;-72
2023/05/29 17:39:08;;;;;;;0.10;0.10;;;;;;;-145.06;43.23;90856.31;10453814;28;20497;-72
2023/05/29 17:44:08;;;;;;;0.10;0.10;;;;;;;-145.06;43.78;90915.59;10452575;28;20045;-70
2023/05/29 17:49:08;;;;;;;0.10;0.10;;;;;;;-145.06;43.77;90970.78;10453358;28;20021;-70
2023/05/29 17:54:12;;;;;;;0.10;0.10;;;;;;;-145.06;45.74;90991.22;10453559;28;20024;-73
2023/05/29 17:59:12;;;;;;;0.10;0.10;;;;;;;-145.06;47.97;91032.09;10451630;28;20021;-72
2023/05/29 18:04:13;;;;;;;0.10;0.10;;;;;;;-145.06;50.44;91171.09;10453104;28;20718;-74
2023/05/29 18:09:13;;;;;;;0.10;0.10;;;;;;;-145.06;51.73;91224.25;10453011;28;20021;-72
2023/05/29 18:14:13;;;;;;;0.10;0.10;;;;;;;-145.06;53.21;91254.91;10452920;28;20104;-72
2023/05/29 18:19:15;;;;;;;0.10;0.10;;;;;;;-145.06;54.22;91355.06;10452506;28;20064;-72
2023/05/29 18:24:15;;;;;;;0.10;0.10;;;;;;;-145.06;56.17;91383.69;10452577;28;20425;-73
2023/05/29 18:29:15;;;;;;;0.10;0.10;;;;;;;-145.06;61.28;91504.31;10451614;28;20060;-72
2023/05/29 18:34:16;;;;;;;0.17;0.17;;;;;;;-145.06;65.19;91598.34;10452495;28;20028;-72
2023/05/29 18:39:16;;;;;;;0.10;0.10;;;;;;;-145.06;68.54;91657.63;10451834;28;20036;-73
2023/05/29 18:44:16;;;;;;;0.10;0.10;;;;;;;-145.06;70.79;91663.75;10451993;28;20021;-72
2023/05/29 18:49:16;;;;;;;0.10;0.10;;;;;;;-145.06;72.48;91733.28;10451717;28;20032;-72
2023/05/29 18:54:17;;;;;;;0.10;0.10;;;;;;;-145.06;75.45;91768.03;10451726;28;20122;-72
2023/05/29 18:59:17;;;;;;;0.10;0.10;;;;;;;-145.06;77.49;91810.97;10451876;28;20032;-72
2023/05/29 19:04:17;;;;;;;0.10;0.10;;;;;;;-145.06;79.11;91847.75;10466075;23;20036;-76
2023/05/29 19:09:18;;;;;;;0.10;0.10;;;;;;;-145.06;84.15;91909.09;10452694;28;20033;-76
2023/05/29 19:14:18;;;;;;;0.00;0.00;;;;;;;-145.06;87.47;91954.06;10460139;28;20032;-76
2023/05/29 19:19:19;;;;;;;0.10;0.10;;;;;;;-145.06;92.18;91923.41;10459647;28;20487;-76
2023/05/29 19:24:19;;;;;;;0.00;0.00;;;;;;;-145.06;94.89;92039.94;10459513;28;20029;-75
2023/05/29 19:29:20;;;;;;;0.03;0.03;;;;;;;-145.06;94.69;92003.16;10459253;28;20107;-75
2023/05/29 19:34:22;;;;;;;0.10;0.10;;;;;;;-145.06;97.97;92062.44;10451084;28;20036;-75
2023/05/29 19:39:22;;;;;;;0.10;0.10;;;;;;;-145.06;98.36;92080.84;10459035;28;20031;-75
2023/05/29 19:44:23;;;;;;;0.10;0.10;;;;;;;-145.06;100.00;92089.03;10458670;28;20495;-75
2023/05/29 19:49:23;;;;;;;0.10;0.10;;;;;;;-145.06;100.00;92103.31;10458499;28;20035;-75
2023/05/29 19:54:25;;;;;;;0.10;0.10;;;;;;;-145.06;100.00;92119.69;10458557;28;20047;-75
2023/05/29 19:59:26;;;;;;;0.10;0.10;;;;;;;-145.06;100.00;92144.22;10458207;28;20275;-75
2023/05/29 20:04:30;;;;;;;0.10;0.10;;;;;;;-145.06;100.00;92134.00;10457468;28;20028;-76
2023/05/29 20:09:30;;;;;;;;;;;;;;;-145.06;100.00;92162.63;10458287;28;20474;-75
2023/05/29 20:14:30;;;;;;;0.10;0.10;;;;;;;-145.06;100.00;92158.53;10457752;28;19916;-76
2023/05/29 20:19:31;;;;;;;0.10;0.10;;;;;;;-145.06;100.00;92187.16;10457282;28;20602;-76
2023/05/29 20:24:31;;;;;;;0.10;0.10;;;;;;;-145.06;100.00;92193.28;10455705;28;20280;-75
2023/05/29 20:29:32;;;;;;;0.05;0.05;;;;;;;-145.06;100.00;92150.34;10456848;28;20032;-76
2023/05/29 20:34:33;;;;;;;0.10;0.10;;;;;;;-145.06;100.00;92191.25;10456855;28;20025;-74
2023/05/29 20:39:34;;;;;;;0.05;0.05;;;;;;;-145.06;100.00;92207.59;10456476;28;20495;-74
2023/05/29 20:44:34;;;;;;;0.10;0.10;;;;;;;-145.06;100.00;92240.31;10455122;28;20037;-76
2023/05/29 20:49:35;;;;;;;0.00;0.00;;;;;;;-145.06;100.00;92240.31;10455825;28;20029;-77
2023/05/29 20:54:35;;;;;;;0.10;0.10;;;;;;;-145.06;100.00;92217.81;10456008;28;20061;-76
2023/05/29 20:59:35;;;;;;;0.00;0.00;;;;;;;-145.06;100.00;92189.19;10455581;28;20374;-74
2023/05/29 21:04:36;;;;;;;0.10;0.10;;;;;;;-145.06;100.00;92230.09;10455561;28;20219;-74
2023/05/29 21:09:38;;;;;;;0.10;0.10;;;;;;;-145.06;100.00;92226.00;10455806;28;20013;-74
2023/05/29 21:14:38;;;;;;;0.08;0.08;;;;;;;-145.06;100.00;92217.81;10453683;28;20086;-75
2023/05/29 21:19:38;;;;;;;0.10;0.10;;;;;;;-145.06;100.00;92260.75;10453470;28;20607;-76
2023/05/29 21:24:39;;;;;;;0.00;0.00;;;;;;;-145.06;100.00;92242.38;10454827;28;20334;-76
2023/05/29 21:29:39;;;;;;;0.10;0.10;;;;;;;-145.06;100.00;92254.63;10453154;28;20017;-75
2023/05/29 21:34:40;;;;;;;0.10;0.10;;;;;;;-145.06;100.00;92287.34;10453494;28;20036;-75
2023/05/29 21:39:40;;;;;;;0.00;0.00;;;;;;;-145.06;100.00;92262.81;10453676;28;20029;-76
2023/05/29 21:44:43;;;;;;;0.00;0.00;;;;;;;-145.06;100.00;92277.13;10452148;28;20033;-75
2023/05/29 21:49:45;;;;;;;0.00;0.00;;;;;;;-145.06;100.00;92301.66;10453425;28;20624;-76
2023/05/29 21:54:45;;;;;;;0.10;0.10;;;;;;;-145.06;100.00;92285.31;10453452;28;20029;-76
2023/05/29 21:59:45;;;;;;;0.10;0.10;;;;;;;-145.06;100.00;92311.88;10444610;28;20021;-76
2023/05/29 22:04:46;;;;;;;0.00;0.00;;;;;;;-145.06;100.00;92283.25;10452550;28;20028;-76
2023/05/29 22:09:46;;;;;;;0.00;0.00;;;;;;;-145.06;100.00;92291.44;10452566;28;20025;-75
2023/05/29 22:14:46;;;;;;;0.00;0.00;;;;;;;-145.06;100.00;92297.56;10452180;28;20352;-75
2023/05/29 22:19:47;;;;;;;0.10;0.10;;;;;;;-145.06;100.00;92326.19;10452212;28;20373;-76
2023/05/29 22:24:48;;;;;;;0.10;0.10;;;;;;;-145.06;100.00;92299.63;10450900;28;20040;-76
2023/05/29 22:29:49;;;;;;;0.00;0.00;;;;;;;-145.06;100.00;92285.31;10451963;28;20099;-75
2023/05/29 22:34:50;;;;;;;0.00;0.00;;;;;;;-145.06;100.00;92236.22;10451840;28;20103;-75
2023/05/29 22:39:50;;;;;;;0.00;0.00;;;;;;;-145.06;100.00;92293.47;10451583;28;20497;-75
2023/05/29 22:44:50;;;;;;;0.00;0.00;;;;;;;-145.06;100.00;92305.75;10450813;28;20568;-75
2023/05/29 22:49:51;;;;;;;0.00;0.00;;;;;;;-145.06;100.00;92311.88;10451647;28;20033;-75
2023/05/29 22:54:51;;;;;;;0.00;0.00;;;;;;;-145.06;100.00;92311.88;10450574;28;20044;-74